Time;durP1;ratioP1;P1;durP2;ratioP2;P2;SDS_P1;SDS_P2;PMS_P1;PMS_P2;Temp;Humidity;BMP_temperature;BMP_pressure;BME280_temperature;BME280_humidity;BME280_pressure;Samples;Min_cycle;Max_cycle;Signal;HPM_P1;HPM_P2
2023/10/24 00:02:18;;;;;;;;;;;19.80;69.30;;;;;;5026076;28;1391;-69
2023/10/24 00:04:44;;;;;;;;;;;19.80;70.10;;;;;;5026716;28;1377;-69
2023/10/24 00:07:09;;;;;;;;;;;19.80;69.40;;;;;;5026393;28;1349;-69
2023/10/24 00:09:35;;;;;;;;;;;19.80;69.30;;;;;;5027090;28;1317;-69
2023/10/24 00:12:01;;;;;;;;;;;19.80;69.30;;;;;;5010290;28;1301;-69
2023/10/24 00:14:27;;;;;;;;;;;19.80;69.30;;;;;;5029458;28;1358;-69
2023/10/24 00:16:52;;;;;;;;;;;19.80;69.40;;;;;;5011843;28;1910;-69
2023/10/24 00:19:17;;;;;;;;;;;19.80;69.30;;;;;;5029480;28;1775;-69
2023/10/24 00:21:43;;;;;;;;;;;19.80;69.40;;;;;;5031625;28;1372;-69
2023/10/24 00:24:09;;;;;;;;;;;19.80;69.40;;;;;;5013252;28;1352;-69
2023/10/24 00:26:35;;;;;;;;;;;19.80;69.40;;;;;;5014844;28;1146;-69
2023/10/24 00:29:00;;;;;;;;;;;19.80;69.40;;;;;;5030779;28;1244;-69
2023/10/24 00:31:26;;;;;;;;;;;19.80;69.40;;;;;;5029631;28;1483;-69
2023/10/24 00:33:51;;;;;;;;;;;19.80;69.40;;;;;;5026661;28;1404;-69
2023/10/24 00:36:17;;;;;;;;;;;19.80;69.40;;;;;;5029326;28;1906;-69
2023/10/24 00:38:42;;;;;;;;;;;19.80;69.40;;;;;;5030141;28;1547;-69
2023/10/24 00:41:08;;;;;;;;;;;19.80;69.40;;;;;;5028390;28;1426;-69
2023/10/24 00:43:33;;;;;;;;;;;19.80;69.40;;;;;;5030538;28;983;-69
2023/10/24 00:45:58;;;;;;;;;;;19.80;69.40;;;;;;5028259;28;1391;-68
2023/10/24 00:48:24;;;;;;;;;;;19.80;69.40;;;;;;5027179;28;1252;-69
2023/10/24 00:50:49;;;;;;;;;;;19.80;69.50;;;;;;5014204;28;1297;-69
2023/10/24 00:53:15;;;;;;;;;;;19.80;69.50;;;;;;5029941;28;1075;-69
2023/10/24 00:55:40;;;;;;;;;;;19.80;69.50;;;;;;5013242;28;1906;-69
2023/10/24 00:58:06;;;;;;;;;;;19.80;69.50;;;;;;5012387;28;1154;-69
2023/10/24 01:00:31;;;;;;;;;;;19.80;69.50;;;;;;5013301;28;1388;-69
2023/10/24 01:02:57;;;;;;;;;;;19.80;69.50;;;;;;5012876;28;1259;-69
2023/10/24 01:05:22;;;;;;;;;;;19.80;69.50;;;;;;5011120;28;1105;-69
2023/10/24 01:07:48;;;;;;;;;;;19.80;69.50;;;;;;5013341;28;975;-69
2023/10/24 01:10:13;;;;;;;;;;;19.80;69.50;;;;;;5027567;28;1317;-69
2023/10/24 01:12:39;;;;;;;;;;;19.80;69.50;;;;;;5028490;28;1094;-69
2023/10/24 01:15:05;;;;;;;;;;;19.80;69.50;;;;;;5011864;28;899;-69
2023/10/24 01:17:31;;;;;;;;;;;19.80;69.50;;;;;;5029000;28;1985;-69
2023/10/24 01:19:56;;;;;;;;;;;19.80;69.50;;;;;;5030089;28;1288;-69
2023/10/24 01:22:22;;;;;;;;;;;19.80;69.50;;;;;;5029846;28;1294;-68
2023/10/24 01:24:47;;;;;;;;;;;19.80;69.60;;;;;;5027713;28;1339;-69
2023/10/24 01:27:13;;;;;;;;;;;19.80;69.50;;;;;;5012401;28;1183;-69
2023/10/24 01:29:38;;;;;;;;;;;19.80;69.60;;;;;;5030704;28;1369;-69
2023/10/24 01:32:04;;;;;;;;;;;19.80;69.60;;;;;;5029903;28;1540;-69
2023/10/24 01:34:29;;;;;;;;;;;19.80;69.60;;;;;;5029128;28;1365;-69
2023/10/24 01:36:55;;;;;;;;;;;19.80;69.60;;;;;;5030029;28;1902;-69
2023/10/24 01:39:20;;;;;;;;;;;19.80;69.60;;;;;;5029219;28;1453;-69
2023/10/24 01:41:46;;;;;;;;;;;19.80;69.60;;;;;;5011519;28;1300;-69
2023/10/24 01:44:11;;;;;;;;;;;19.80;69.60;;;;;;5010144;28;1368;-69
2023/10/24 01:46:36;;;;;;;;;;;19.80;69.60;;;;;;5027553;28;1568;-69
2023/10/24 01:49:02;;;;;;;;;;;19.80;69.60;;;;;;5029427;28;1424;-69
2023/10/24 01:51:28;;;;;;;;;;;19.80;69.60;;;;;;5011088;28;1473;-69
2023/10/24 01:53:54;;;;;;;;;;;19.80;69.70;;;;;;5029390;28;1371;-69
2023/10/24 01:56:19;;;;;;;;;;;19.80;69.70;;;;;;5028271;28;1952;-69
2023/10/24 01:58:45;;;;;;;;;;;19.80;69.60;;;;;;5028357;28;1429;-69
2023/10/24 02:01:10;;;;;;;;;;;19.80;69.70;;;;;;5029062;28;1322;-69
2023/10/24 02:03:36;;;;;;;;;;;19.80;69.70;;;;;;5029865;28;1227;-69
2023/10/24 02:06:01;;;;;;;;;;;19.80;69.70;;;;;;5009135;28;1284;-69
2023/10/24 02:08:27;;;;;;;;;;;19.80;69.70;;;;;;5028029;28;1080;-69
2023/10/24 02:10:52;;;;;;;;;;;19.80;69.70;;;;;;5043649;22;3645;-68
2023/10/24 02:13:18;;;;;;;;;;;19.80;69.70;;;;;;5044058;28;950;-65
2023/10/24 02:15:43;;;;;;;;;;;19.80;69.70;;;;;;5046975;28;997;-66
2023/10/24 02:18:09;;;;;;;;;;;19.80;69.70;;;;;;5028279;28;1147;-66
2023/10/24 02:20:34;;;;;;;;;;;19.80;69.70;;;;;;5027226;28;1320;-66
2023/10/24 02:22:59;;;;;;;;;;;19.80;69.70;;;;;;5022722;28;1359;-66
2023/10/24 02:25:25;;;;;;;;;;;19.80;70.10;;;;;;5021332;28;1285;-65
2023/10/24 02:27:52;;;;;;;;;;;19.80;69.70;;;;;;5021258;28;1148;-66
2023/10/24 02:30:18;;;;;;;;;;;19.80;70.50;;;;;;5002776;28;1523;-66
2023/10/24 02:32:43;;;;;;;;;;;19.80;69.80;;;;;;5017413;28;1150;-65
2023/10/24 02:35:08;;;;;;;;;;;19.80;69.70;;;;;;5018588;28;1105;-67
2023/10/24 02:37:34;;;;;;;;;;;19.80;69.70;;;;;;5020882;28;1914;-66
2023/10/24 02:39:59;;;;;;;;;;;19.80;69.80;;;;;;5018745;28;1261;-66
2023/10/24 02:42:25;;;;;;;;;;;19.80;69.70;;;;;;5016963;28;1928;-66
2023/10/24 02:44:50;;;;;;;;;;;19.80;69.80;;;;;;5020264;28;1471;-67
2023/10/24 02:47:16;;;;;;;;;;;19.80;69.80;;;;;;5019194;28;1325;-67
2023/10/24 02:49:41;;;;;;;;;;;19.80;69.80;;;;;;5018600;28;1252;-67
2023/10/24 02:52:07;;;;;;;;;;;19.80;69.80;;;;;;5021107;28;1506;-66
2023/10/24 02:54:32;;;;;;;;;;;19.80;69.80;;;;;;5018331;28;1528;-66
2023/10/24 02:56:58;;;;;;;;;;;19.80;69.80;;;;;;5010540;28;2023;-66
2023/10/24 02:59:23;;;;;;;;;;;19.80;69.80;;;;;;5020220;28;1687;-66
2023/10/24 03:01:49;;;;;;;;;;;19.80;69.80;;;;;;5011114;28;1458;-66
2023/10/24 03:04:14;;;;;;;;;;;19.80;69.80;;;;;;5017067;28;1451;-67
2023/10/24 03:06:39;;;;;;;;;;;19.80;69.80;;;;;;5018637;28;1458;-66
2023/10/24 03:09:05;;;;;;;;;;;19.80;69.80;;;;;;5019629;28;1257;-66
2023/10/24 03:11:30;;;;;;;;;;;19.80;69.80;;;;;;5019984;28;1512;-66
2023/10/24 03:13:56;;;;;;;;;;;19.80;69.80;;;;;;5021268;28;1268;-66
2023/10/24 03:16:22;;;;;;;;;;;19.80;69.80;;;;;;5019940;28;1918;-66
2023/10/24 03:18:47;;;;;;;;;;;19.80;69.80;;;;;;5015781;28;1347;-66
2023/10/24 03:21:13;;;;;;;;;;;19.80;69.80;;;;;;5019253;28;1287;-66
2023/10/24 03:23:40;;;;;;;;;;;19.80;69.90;;;;;;5019443;28;1249;-66
2023/10/24 03:26:06;;;;;;;;;;;19.80;69.90;;;;;;5021069;28;1250;-66
2023/10/24 03:28:31;;;;;;;;;;;19.80;69.90;;;;;;5023185;28;1266;-66
2023/10/24 03:31:01;;;;;;;;;;;19.80;69.80;;;;;;5006071;28;1409;-66
2023/10/24 03:33:26;;;;;;;;;;;19.80;69.80;;;;;;5009914;28;1390;-66
2023/10/24 03:35:52;;;;;;;;;;;19.80;69.90;;;;;;5019215;28;1910;-66
2023/10/24 03:38:17;;;;;;;;;;;19.80;69.90;;;;;;5020531;28;1359;-66
2023/10/24 03:40:43;;;;;;;;;;;19.80;69.90;;;;;;5020285;28;1345;-66
2023/10/24 03:43:08;;;;;;;;;;;19.80;69.90;;;;;;5019844;28;1067;-66
2023/10/24 03:45:35;;;;;;;;;;;19.70;69.80;;;;;;5018233;28;885;-66
2023/10/24 03:48:01;;;;;;;;;;;19.80;69.90;;;;;;5020773;28;1281;-66
2023/10/24 03:50:26;;;;;;;;;;;19.80;70.00;;;;;;5020292;28;1261;-66
2023/10/24 03:52:52;;;;;;;;;;;19.80;69.90;;;;;;5023784;28;1013;-66
2023/10/24 03:55:17;;;;;;;;;;;19.70;69.80;;;;;;5022353;28;1008;-66
2023/10/24 03:57:43;;;;;;;;;;;19.80;70.00;;;;;;5020927;28;1906;-66
2023/10/24 04:00:08;;;;;;;;;;;19.80;69.90;;;;;;5022149;28;1214;-66
2023/10/24 04:02:34;;;;;;;;;;;19.80;70.00;;;;;;5024137;28;1254;-66
2023/10/24 04:05:00;;;;;;;;;;;19.80;70.00;;;;;;5027110;28;1335;-66
2023/10/24 04:07:25;;;;;;;;;;;19.70;69.90;;;;;;5021551;28;1322;-66
2023/10/24 04:09:51;;;;;;;;;;;19.80;70.00;;;;;;5022519;28;1225;-66
2023/10/24 04:12:16;;;;;;;;;;;19.80;70.00;;;;;;5019695;28;1294;-66
2023/10/24 04:14:42;;;;;;;;;;;19.80;70.00;;;;;;5023203;28;1441;-66
2023/10/24 04:17:07;;;;;;;;;;;19.80;70.00;;;;;;5020353;28;1914;-66
2023/10/24 04:19:32;;;;;;;;;;;19.80;70.00;;;;;;5022049;28;1464;-66
2023/10/24 04:21:58;;;;;;;;;;;19.70;69.90;;;;;;5020129;28;1332;-66
2023/10/24 04:24:23;;;;;;;;;;;19.70;69.90;;;;;;5022916;28;1666;-66
2023/10/24 04:26:49;;;;;;;;;;;19.70;69.90;;;;;;5020484;28;1418;-66
2023/10/24 04:29:15;;;;;;;;;;;19.70;70.00;;;;;;5022302;28;1376;-66
2023/10/24 04:31:41;;;;;;;;;;;19.80;70.00;;;;;;5022273;28;1291;-66
2023/10/24 04:34:06;;;;;;;;;;;19.70;69.90;;;;;;5022630;28;1327;-66
2023/10/24 04:36:32;;;;;;;;;;;19.80;70.00;;;;;;5023994;28;1942;-66
2023/10/24 04:38:57;;;;;;;;;;;19.70;70.00;;;;;;5022033;28;1486;-66
2023/10/24 04:41:23;;;;;;;;;;;19.70;70.00;;;;;;5020776;28;1477;-66
2023/10/24 04:43:48;;;;;;;;;;;19.70;70.00;;;;;;5018565;28;928;-66
2023/10/24 04:46:13;;;;;;;;;;;19.70;70.80;;;;;;5023795;28;1407;-66
2023/10/24 04:48:39;;;;;;;;;;;19.70;70.00;;;;;;5021987;28;1307;-66
2023/10/24 04:51:11;;;;;;;;;;;19.70;70.00;;;;;;5020433;28;1360;-66
2023/10/24 04:53:36;;;;;;;;;;;19.70;70.00;;;;;;5004713;28;1532;-66
2023/10/24 04:56:03;;;;;;;;;;;19.70;70.00;;;;;;5025615;28;1964;-66
2023/10/24 04:58:28;;;;;;;;;;;19.70;70.10;;;;;;5021229;28;1388;-66
2023/10/24 05:00:54;;;;;;;;;;;19.70;70.00;;;;;;5018810;28;1315;-66
2023/10/24 05:03:19;;;;;;;;;;;19.70;70.00;;;;;;5022810;28;1280;-66
2023/10/24 05:05:44;;;;;;;;;;;19.70;70.00;;;;;;5019343;28;1414;-66
2023/10/24 05:08:11;;;;;;;;;;;19.70;70.10;;;;;;5023387;28;1233;-66
2023/10/24 05:10:36;;;;;;;;;;;19.70;70.00;;;;;;5024606;28;1338;-66
2023/10/24 05:13:02;;;;;;;;;;;19.70;70.10;;;;;;5014218;28;1415;-66
2023/10/24 05:15:27;;;;;;;;;;;19.70;70.00;;;;;;5018985;28;1519;-66
2023/10/24 05:17:53;;;;;;;;;;;19.70;70.00;;;;;;5021528;28;1975;-66
2023/10/24 05:20:19;;;;;;;;;;;19.70;70.10;;;;;;5020375;28;1303;-66
2023/10/24 05:22:44;;;;;;;;;;;19.70;70.10;;;;;;5021821;28;1286;-66
2023/10/24 05:25:10;;;;;;;;;;;19.70;70.00;;;;;;5022416;28;1417;-66
2023/10/24 05:27:38;;;;;;;;;;;19.70;70.10;;;;;;5020776;28;1602;-66
2023/10/24 05:30:04;;;;;;;;;;;19.70;70.10;;;;;;5019926;28;1305;-66
2023/10/24 05:32:30;;;;;;;;;;;19.70;70.10;;;;;;5018708;28;1641;-66
2023/10/24 05:34:55;;;;;;;;;;;19.70;70.10;;;;;;5018445;28;1292;-66
2023/10/24 05:37:20;;;;;;;;;;;19.70;70.10;;;;;;5019393;28;1898;-66
2023/10/24 05:39:46;;;;;;;;;;;19.70;70.10;;;;;;5022329;28;1318;-66
2023/10/24 05:42:12;;;;;;;;;;;19.70;70.10;;;;;;5022059;28;1370;-66
2023/10/24 05:44:37;;;;;;;;;;;19.70;70.10;;;;;;5023455;28;1312;-66
2023/10/24 05:47:03;;;;;;;;;;;19.70;70.10;;;;;;5021600;28;1252;-66
2023/10/24 05:49:29;;;;;;;;;;;19.70;70.10;;;;;;5024689;28;1350;-66
2023/10/24 05:51:54;;;;;;;;;;;19.70;70.10;;;;;;5019886;28;1369;-66
2023/10/24 05:54:20;;;;;;;;;;;19.80;70.10;;;;;;5018639;28;1357;-66
2023/10/24 05:56:45;;;;;;;;;;;19.80;70.00;;;;;;5019878;28;1914;-66
2023/10/24 05:59:11;;;;;;;;;;;19.80;70.10;;;;;;5019561;28;1404;-66
2023/10/24 06:01:36;;;;;;;;;;;19.90;70.10;;;;;;5018763;28;1418;-66
2023/10/24 06:04:02;;;;;;;;;;;20.00;70.10;;;;;;5006764;28;1304;-66
2023/10/24 06:06:27;;;;;;;;;;;20.10;69.80;;;;;;5016630;28;1818;-66
2023/10/24 06:08:56;;;;;;;;;;;20.20;69.40;;;;;;4997228;28;2144;-65
2023/10/24 06:11:21;;;;;;;;;;;20.30;69.10;;;;;;5021710;28;1280;-67
2023/10/24 06:13:47;;;;;;;;;;;20.40;68.80;;;;;;5024834;28;962;-65
2023/10/24 06:16:13;;;;;;;;;;;20.50;68.40;;;;;;5018843;28;1961;-65
2023/10/24 06:18:38;;;;;;;;;;;20.70;68.20;;;;;;5021218;28;1883;-65
2023/10/24 06:21:04;;;;;;;;;;;20.80;67.80;;;;;;5020187;28;1430;-65
2023/10/24 06:23:30;;;;;;;;;;;20.80;67.50;;;;;;5023051;28;1028;-65
2023/10/24 06:25:56;;;;;;;;;;;20.90;67.20;;;;;;5023632;28;998;-65
2023/10/24 06:28:22;;;;;;;;;;;21.00;67.00;;;;;;5019364;28;2011;-65
2023/10/24 06:30:47;;;;;;;;;;;21.10;66.70;;;;;;5020795;28;1361;-65
2023/10/24 06:33:13;;;;;;;;;;;21.20;66.50;;;;;;5003880;28;1396;-65
2023/10/24 06:35:38;;;;;;;;;;;21.30;66.30;;;;;;5021693;28;1441;-66
2023/10/24 06:38:04;;;;;;;;;;;21.30;66.00;;;;;;5004422;28;1965;-66
2023/10/24 06:40:29;;;;;;;;;;;21.30;65.80;;;;;;5019850;28;1327;-66
2023/10/24 06:42:55;;;;;;;;;;;21.40;65.70;;;;;;5020931;28;1512;-67
2023/10/24 06:45:20;;;;;;;;;;;21.40;65.50;;;;;;5021685;28;1432;-68
2023/10/24 06:47:46;;;;;;;;;;;21.50;65.30;;;;;;5020737;28;1564;-68
2023/10/24 06:50:11;;;;;;;;;;;21.50;65.20;;;;;;5018658;28;1518;-68
2023/10/24 06:52:37;;;;;;;;;;;21.50;65.10;;;;;;5019877;28;1249;-68
2023/10/24 06:55:04;;;;;;;;;;;21.60;65.00;;;;;;5019716;28;1315;-66
2023/10/24 06:57:30;;;;;;;;;;;21.60;64.90;;;;;;5019052;28;1906;-66
2023/10/24 06:59:55;;;;;;;;;;;21.60;64.80;;;;;;5021237;28;1318;-66
2023/10/24 07:02:21;;;;;;;;;;;21.70;64.80;;;;;;5018542;28;1878;-66
2023/10/24 07:04:46;;;;;;;;;;;21.70;64.70;;;;;;5017775;28;1245;-66
2023/10/24 07:07:12;;;;;;;;;;;21.70;64.60;;;;;;5016004;28;1304;-66
2023/10/24 07:09:38;;;;;;;;;;;21.70;64.60;;;;;;5020623;28;1940;-66
2023/10/24 07:12:03;;;;;;;;;;;21.70;64.50;;;;;;5019754;28;2124;-66
2023/10/24 07:14:29;;;;;;;;;;;21.80;64.90;;;;;;5020366;28;2074;-66
2023/10/24 07:16:54;;;;;;;;;;;21.80;65.10;;;;;;5021414;28;1961;-67
2023/10/24 07:19:20;;;;;;;;;;;21.80;65.30;;;;;;5005719;28;1511;-65
2023/10/24 07:21:46;;;;;;;;;;;21.80;65.60;;;;;;5006059;28;1449;-65
2023/10/24 07:24:11;;;;;;;;;;;21.80;65.60;;;;;;5025712;28;1257;-65
2023/10/24 07:26:37;;;;;;;;;;;21.80;65.80;;;;;;5030173;28;1275;-67
2023/10/24 07:29:02;;;;;;;;;;;21.80;65.90;;;;;;5029175;28;1391;-66
2023/10/24 07:31:28;;;;;;;;;;;21.80;66.10;;;;;;5023514;28;1685;-66
2023/10/24 07:33:53;;;;;;;;;;;21.80;66.20;;;;;;5025954;28;1688;-66
2023/10/24 07:36:19;;;;;;;;;;;21.80;66.40;;;;;;5025756;28;1936;-66
2023/10/24 07:38:44;;;;;;;;;;;21.80;66.10;;;;;;5025423;28;1242;-66
2023/10/24 07:41:10;;;;;;;;;;;21.80;66.10;;;;;;5026214;28;1543;-66
2023/10/24 07:43:36;;;;;;;;;;;21.80;66.20;;;;;;5023415;28;1367;-66
2023/10/24 07:46:02;;;;;;;;;;;21.80;66.30;;;;;;5024543;28;1326;-66
2023/10/24 07:48:28;;;;;;;;;;;21.80;66.30;;;;;;5025503;28;1626;-66
2023/10/24 07:50:54;;;;;;;;;;;21.80;66.40;;;;;;5026210;28;1471;-66
2023/10/24 07:53:22;;;;;;;;;;;21.80;66.40;;;;;;5016930;28;1512;-66
2023/10/24 07:55:48;;;;;;;;;;;21.80;66.50;;;;;;5008603;28;1293;-66
2023/10/24 07:58:16;;;;;;;;;;;21.80;66.80;;;;;;5028349;28;1898;-66
2023/10/24 08:00:42;;;;;;;;;;;21.80;67.00;;;;;;5010835;28;1551;-66
2023/10/24 08:03:07;;;;;;;;;;;21.80;67.20;;;;;;5025432;28;1303;-66
2023/10/24 08:05:32;;;;;;;;;;;21.80;67.30;;;;;;5020242;28;1323;-66
2023/10/24 08:07:58;;;;;;;;;;;21.80;67.40;;;;;;5021585;28;1233;-66
2023/10/24 08:10:23;;;;;;;;;;;21.80;67.50;;;;;;5025941;28;1447;-66
2023/10/24 08:12:49;;;;;;;;;;;21.80;67.60;;;;;;5009328;28;1291;-66
2023/10/24 08:15:14;;;;;;;;;;;21.80;67.80;;;;;;5025004;28;1223;-66
2023/10/24 08:17:40;;;;;;;;;;;21.80;67.80;;;;;;5027061;28;1914;-66
2023/10/24 08:20:05;;;;;;;;;;;21.80;67.90;;;;;;5025305;28;1609;-67
2023/10/24 08:22:31;;;;;;;;;;;21.80;68.00;;;;;;5049558;22;2135;-68
2023/10/24 08:24:57;;;;;;;;;;;21.80;68.00;;;;;;5033345;28;1323;-67
2023/10/24 08:27:22;;;;;;;;;;;21.80;68.00;;;;;;5018639;28;1487;-67
2023/10/24 08:29:47;;;;;;;;;;;21.80;68.10;;;;;;5034463;28;1097;-68
2023/10/24 08:32:13;;;;;;;;;;;21.70;68.20;;;;;;5032472;28;1351;-67
2023/10/24 08:34:38;;;;;;;;;;;21.80;68.20;;;;;;5030511;28;1325;-67
2023/10/24 08:37:04;;;;;;;;;;;21.80;68.20;;;;;;5030360;28;1973;-68
2023/10/24 08:39:29;;;;;;;;;;;21.80;68.20;;;;;;5028498;28;1383;-68
2023/10/24 08:41:56;;;;;;;;;;;21.80;68.20;;;;;;5030754;28;1417;-68
2023/10/24 08:44:22;;;;;;;;;;;21.80;68.30;;;;;;5028072;28;1467;-67
2023/10/24 08:46:48;;;;;;;;;;;21.70;68.20;;;;;;5012383;28;1188;-67
2023/10/24 08:49:13;;;;;;;;;;;21.80;68.30;;;;;;5027477;28;1228;-67
2023/10/24 08:51:39;;;;;;;;;;;21.80;68.30;;;;;;5011129;28;1448;-67
2023/10/24 08:54:05;;;;;;;;;;;21.70;68.40;;;;;;5029712;28;1236;-67
2023/10/24 08:56:30;;;;;;;;;;;21.80;68.40;;;;;;5029158;28;1894;-67
2023/10/24 08:58:56;;;;;;;;;;;21.80;68.50;;;;;;5029184;28;1256;-68
2023/10/24 09:01:21;;;;;;;;;;;21.80;68.40;;;;;;5028943;28;1288;-67
2023/10/24 09:03:47;;;;;;;;;;;21.70;68.40;;;;;;5028124;28;1317;-67
2023/10/24 09:06:12;;;;;;;;;;;21.80;68.30;;;;;;5027579;28;1275;-67
2023/10/24 09:08:38;;;;;;;;;;;21.80;68.20;;;;;;5028389;28;1133;-67
2023/10/24 09:11:03;;;;;;;;;;;21.80;68.20;;;;;;5025606;28;1394;-68
2023/10/24 09:13:28;;;;;;;;;;;21.80;68.20;;;;;;5028713;28;1306;-68
2023/10/24 09:16:03;;;;;;;;;;;21.80;68.20;;;;;;5026935;28;1268;-68
2023/10/24 09:18:29;;;;;;;;;;;21.80;68.30;;;;;;5028359;28;1403;-68
2023/10/24 09:20:55;;;;;;;;;;;21.70;68.40;;;;;;5029192;28;1548;-68
2023/10/24 09:23:20;;;;;;;;;;;21.70;68.40;;;;;;5028096;28;1467;-68
2023/10/24 09:25:47;;;;;;;;;;;21.70;68.50;;;;;;5024055;28;1591;-68
2023/10/24 09:28:17;;;;;;;;;;;21.70;68.60;;;;;;5029670;28;1267;-68
2023/10/24 09:30:42;;;;;;;;;;;21.60;68.60;;;;;;5028309;28;1381;-68
2023/10/24 09:33:08;;;;;;;;;;;21.60;68.80;;;;;;5027144;28;1452;-68
2023/10/24 09:35:35;;;;;;;;;;;21.60;68.70;;;;;;5027806;28;1441;-68
2023/10/24 09:38:01;;;;;;;;;;;21.60;68.90;;;;;;5027329;28;1971;-68
2023/10/24 09:40:32;;;;;;;;;;;21.60;68.90;;;;;;5026138;28;1375;-68
2023/10/24 09:42:57;;;;;;;;;;;21.60;69.00;;;;;;5028632;28;1332;-68
2023/10/24 09:45:23;;;;;;;;;;;21.50;68.90;;;;;;5026442;28;1519;-68
2023/10/24 09:47:48;;;;;;;;;;;21.50;69.00;;;;;;5023440;28;1488;-68
2023/10/24 09:50:14;;;;;;;;;;;21.50;69.00;;;;;;5023323;28;1405;-67
2023/10/24 09:52:39;;;;;;;;;;;21.50;69.10;;;;;;5027341;28;1365;-68
2023/10/24 09:55:05;;;;;;;;;;;21.50;69.20;;;;;;5012138;28;1333;-68
2023/10/24 09:57:30;;;;;;;;;;;21.50;69.30;;;;;;5027866;28;1902;-68
2023/10/24 09:59:58;;;;;;;;;;;21.50;69.30;;;;;;5016785;28;1195;-68
2023/10/24 10:02:23;;;;;;;;;;;21.50;69.30;;;;;;5022479;28;1512;-68
2023/10/24 10:04:49;;;;;;;;;;;21.50;69.50;;;;;;5025731;28;1677;-67
2023/10/24 10:07:15;;;;;;;;;;;21.50;69.40;;;;;;5026870;28;1955;-68
2023/10/24 10:09:42;;;;;;;;;;;21.50;69.50;;;;;;5027438;28;1457;-69
2023/10/24 10:12:09;;;;;;;;;;;21.40;69.50;;;;;;5028093;28;1341;-69
2023/10/24 10:14:38;;;;;;;;;;;21.50;69.60;;;;;;5028675;28;1520;-68
2023/10/24 10:17:10;;;;;;;;;;;21.50;69.60;;;;;;5027182;28;1910;-68
2023/10/24 10:19:38;;;;;;;;;;;21.50;69.60;;;;;;5027852;28;1576;-68
2023/10/24 10:22:12;;;;;;;;;;;21.50;69.80;;;;;;5032742;28;1572;-68
2023/10/24 10:24:53;;;;;;;;;;;21.50;69.90;;;;;;5029478;28;1631;-68
2023/10/24 10:27:21;;;;;;;;;;;21.50;69.70;;;;;;5023367;28;1264;-68
2023/10/24 10:30:26;;;;;;;;;;;21.50;69.80;;;;;;5020951;28;1273;-67
2023/10/24 10:32:54;;;;;;;;;;;21.50;69.80;;;;;;4970031;28;1384;-68
2023/10/24 10:35:19;;;;;;;;;;;21.50;69.70;;;;;;4968291;28;1398;-68
2023/10/24 10:38:03;;;;;;;;;;;21.50;69.30;;;;;;4996041;28;1985;-69
2023/10/24 10:40:28;;;;;;;;;;;21.50;70.00;;;;;;5023140;28;1516;-68
2023/10/24 10:42:54;;;;;;;;;;;21.50;70.10;;;;;;5028115;28;1354;-68
2023/10/24 10:45:27;;;;;;;;;;;21.50;70.10;;;;;;5027520;28;1554;-68
2023/10/24 10:47:53;;;;;;;;;;;21.50;70.20;;;;;;5043634;28;1390;-67
2023/10/24 10:50:22;;;;;;;;;;;21.40;70.10;;;;;;5010675;28;1536;-68
2023/10/24 10:52:49;;;;;;;;;;;21.50;70.10;;;;;;5011106;28;1494;-68
2023/10/24 10:55:23;;;;;;;;;;;21.50;70.00;;;;;;5021629;28;1424;-68
2023/10/24 10:58:17;;;;;;;;;;;21.50;69.80;;;;;;5027587;28;1906;-68
2023/10/24 11:01:00;;;;;;;;;;;21.50;70.10;;;;;;4933939;29;1554;-68
2023/10/24 11:03:47;;;;;;;;;;;21.50;69.70;;;;;;4945474;29;1503;-68
2023/10/24 11:06:14;;;;;;;;;;;21.50;69.70;;;;;;5028255;28;1159;-68
2023/10/24 11:08:41;;;;;;;;;;;21.40;69.60;;;;;;5027188;28;1536;-67
2023/10/24 11:11:10;;;;;;;;;;;21.40;69.60;;;;;;5027032;28;1398;-68
2023/10/24 11:13:40;;;;;;;;;;;21.40;69.70;;;;;;5023102;28;1478;-68
2023/10/24 11:16:06;;;;;;;;;;;21.40;69.70;;;;;;5027491;28;1902;-68
2023/10/24 11:18:32;;;;;;;;;;;21.40;69.90;;;;;;5021319;28;1722;-68
2023/10/24 11:20:58;;;;;;;;;;;21.40;69.90;;;;;;5021298;28;1551;-68
2023/10/24 11:23:24;;;;;;;;;;;21.40;69.80;;;;;;5026399;28;1443;-68
2023/10/24 11:25:49;;;;;;;;;;;21.40;69.80;;;;;;5027171;28;1421;-68
2023/10/24 11:28:15;;;;;;;;;;;21.40;69.90;;;;;;5021584;28;1475;-68
2023/10/24 11:30:41;;;;;;;;;;;21.40;70.00;;;;;;5024775;28;1424;-69
2023/10/24 11:33:06;;;;;;;;;;;21.40;70.00;;;;;;5026473;28;1347;-68
2023/10/24 11:35:32;;;;;;;;;;;21.40;70.10;;;;;;5025363;28;1561;-67
2023/10/24 11:37:57;;;;;;;;;;;21.40;70.10;;;;;;5027060;28;1910;-69
2023/10/24 11:40:23;;;;;;;;;;;21.40;70.10;;;;;;5025302;28;1388;-68
2023/10/24 11:42:48;;;;;;;;;;;21.40;70.00;;;;;;5041938;28;1692;-69
2023/10/24 11:45:14;;;;;;;;;;;21.40;70.00;;;;;;5027423;28;1628;-67
2023/10/24 11:47:39;;;;;;;;;;;21.40;70.10;;;;;;5027887;28;1323;-68
2023/10/24 11:50:05;;;;;;;;;;;21.40;70.10;;;;;;5023441;28;1653;-68
2023/10/24 11:52:30;;;;;;;;;;;21.40;70.90;;;;;;5028144;28;1383;-70
2023/10/24 11:54:56;;;;;;;;;;;21.30;70.20;;;;;;5022741;28;1812;-69
2023/10/24 11:57:25;;;;;;;;;;;21.30;70.30;;;;;;5023552;28;1910;-68
2023/10/24 11:59:50;;;;;;;;;;;21.30;70.40;;;;;;5021188;28;1541;-68
2023/10/24 12:02:16;;;;;;;;;;;21.30;70.40;;;;;;5019168;28;1567;-68
2023/10/24 12:04:47;;;;;;;;;;;21.30;70.30;;;;;;5020404;28;1494;-68
2023/10/24 12:07:12;;;;;;;;;;;21.30;70.40;;;;;;5020626;28;1996;-67
2023/10/24 12:09:38;;;;;;;;;;;21.30;70.40;;;;;;5025754;28;1899;-67
2023/10/24 12:12:04;;;;;;;;;;;21.30;70.50;;;;;;5030881;28;1379;-68
2023/10/24 12:14:29;;;;;;;;;;;21.30;70.70;;;;;;5029954;28;1222;-67
2023/10/24 12:16:56;;;;;;;;;;;21.30;70.70;;;;;;5028839;28;1902;-68
2023/10/24 12:19:22;;;;;;;;;;;21.30;70.80;;;;;;5029526;28;1390;-68
2023/10/24 12:21:47;;;;;;;;;;;21.30;70.80;;;;;;5030905;28;1469;-68
2023/10/24 12:24:13;;;;;;;;;;;21.30;70.80;;;;;;5030849;28;1518;-67
2023/10/24 12:26:38;;;;;;;;;;;21.30;70.80;;;;;;5030515;28;1414;-68
2023/10/24 12:29:09;;;;;;;;;;;21.30;70.90;;;;;;5029816;28;1332;-68
2023/10/24 12:31:35;;;;;;;;;;;21.30;70.90;;;;;;5031368;28;1430;-68
2023/10/24 12:34:00;;;;;;;;;;;21.30;70.90;;;;;;5027956;28;1537;-68
2023/10/24 12:36:26;;;;;;;;;;;21.30;71.00;;;;;;5028260;28;1983;-68
2023/10/24 12:38:51;;;;;;;;;;;21.30;71.00;;;;;;5031170;28;1512;-68
2023/10/24 12:41:17;;;;;;;;;;;21.30;71.00;;;;;;5030494;28;1514;-68
2023/10/24 12:43:42;;;;;;;;;;;21.30;71.10;;;;;;5031530;28;1574;-68
2023/10/24 12:46:07;;;;;;;;;;;21.30;72.10;;;;;;5029266;28;1707;-68
2023/10/24 12:48:33;;;;;;;;;;;21.30;71.20;;;;;;5030146;28;1626;-69
2023/10/24 12:50:59;;;;;;;;;;;21.30;71.00;;;;;;5030005;28;1294;-68
2023/10/24 12:53:25;;;;;;;;;;;21.30;70.90;;;;;;5029743;28;1206;-68
2023/10/24 12:55:50;;;;;;;;;;;21.30;70.60;;;;;;5027838;28;1411;-68
2023/10/24 12:58:16;;;;;;;;;;;21.30;70.50;;;;;;5025781;28;1907;-68
2023/10/24 13:00:41;;;;;;;;;;;21.30;70.50;;;;;;5027034;28;1485;-68
2023/10/24 13:03:10;;;;;;;;;;;21.30;70.70;;;;;;5028735;28;1550;-68
2023/10/24 13:05:35;;;;;;;;;;;21.30;70.70;;;;;;5028273;28;1343;-67
2023/10/24 13:08:01;;;;;;;;;;;21.30;70.70;;;;;;5029814;28;1338;-67
2023/10/24 13:10:27;;;;;;;;;;;21.30;70.80;;;;;;5029288;28;1351;-68
2023/10/24 13:12:52;;;;;;;;;;;21.30;70.90;;;;;;5028701;28;1216;-69
2023/10/24 13:15:18;;;;;;;;;;;21.20;70.80;;;;;;5025497;28;1443;-70
2023/10/24 13:17:43;;;;;;;;;;;21.20;70.90;;;;;;5031374;28;1905;-69
2023/10/24 13:20:09;;;;;;;;;;;21.20;70.90;;;;;;5024523;28;1281;-69
2023/10/24 13:22:34;;;;;;;;;;;21.20;71.00;;;;;;5030201;28;1447;-69
2023/10/24 13:25:00;;;;;;;;;;;21.20;71.00;;;;;;5030555;28;1477;-69
2023/10/24 13:27:25;;;;;;;;;;;21.20;71.20;;;;;;5029349;28;1570;-69
2023/10/24 13:29:52;;;;;;;;;;;21.20;71.50;;;;;;5029685;28;1475;-69
2023/10/24 13:32:17;;;;;;;;;;;21.20;71.30;;;;;;5027354;28;1483;-69
2023/10/24 13:34:43;;;;;;;;;;;21.20;71.30;;;;;;5027292;28;1488;-69
2023/10/24 13:37:09;;;;;;;;;;;21.20;71.40;;;;;;5029205;28;1910;-69
2023/10/24 13:39:34;;;;;;;;;;;21.20;71.70;;;;;;5027963;28;1318;-69
2023/10/24 13:42:00;;;;;;;;;;;21.20;71.90;;;;;;5030534;28;1344;-68
2023/10/24 13:44:26;;;;;;;;;;;21.20;71.70;;;;;;5028859;28;1402;-69
2023/10/24 13:46:52;;;;;;;;;;;21.20;71.50;;;;;;5028405;28;1452;-68
2023/10/24 13:49:17;;;;;;;;;;;21.20;71.50;;;;;;5027806;28;1425;-69
2023/10/24 13:51:43;;;;;;;;;;;21.20;71.50;;;;;;5029729;28;1437;-69
2023/10/24 13:54:08;;;;;;;;;;;21.20;71.50;;;;;;5026417;28;1343;-69
2023/10/24 13:56:34;;;;;;;;;;;21.20;71.70;;;;;;5026737;28;1914;-68
2023/10/24 13:58:59;;;;;;;;;;;21.20;72.20;;;;;;5026342;28;1267;-68
2023/10/24 14:01:26;;;;;;;;;;;21.20;72.20;;;;;;5029236;28;1370;-68
2023/10/24 14:03:52;;;;;;;;;;;21.30;72.20;;;;;;5027223;28;1096;-68
2023/10/24 14:06:18;;;;;;;;;;;21.30;72.10;;;;;;5027497;28;1236;-68
2023/10/24 14:08:44;;;;;;;;;;;21.30;72.00;;;;;;5021653;28;1238;-68
2023/10/24 14:11:09;;;;;;;;;;;21.30;71.60;;;;;;5029686;28;1294;-69
2023/10/24 14:13:35;;;;;;;;;;;21.30;71.40;;;;;;5027709;28;1547;-70
2023/10/24 14:16:00;;;;;;;;;;;21.30;71.60;;;;;;5028162;28;1420;-69
2023/10/24 14:18:26;;;;;;;;;;;21.30;71.70;;;;;;5020471;28;1973;-69
2023/10/24 14:20:51;;;;;;;;;;;21.20;71.80;;;;;;5023176;28;1396;-69
2023/10/24 14:23:17;;;;;;;;;;;21.20;72.00;;;;;;5036603;23;3632;-67
2023/10/24 14:25:42;;;;;;;;;;;21.20;72.10;;;;;;5018349;28;1081;-67